Time;durP1;ratioP1;P1;durP2;ratioP2;P2;SDS_P1;SDS_P2;PMS_P1;PMS_P2;Temp;Humidity;BMP_temperature;BMP_pressure;BME280_temperature;BME280_humidity;BME280_pressure;Samples;Min_cycle;Max_cycle;Signal;HPM_P1;HPM_P2
2022/04/23 00:01:08;;;;;;;;;;;19.10;56.60;;;;;;4988511;28;19913;-68
2022/04/23 00:03:34;;;;;;;;;;;19.00;56.60;;;;;;5005480;28;19914;-68
2022/04/23 00:06:00;;;;;;;;;;;19.10;56.60;;;;;;5005881;28;20016;-69
2022/04/23 00:08:26;;;;;;;;;;;19.10;56.60;;;;;;5005182;28;20011;-68
2022/04/23 00:10:51;;;;;;;;;;;19.00;56.60;;;;;;4988139;28;20005;-70
2022/04/23 00:13:17;;;;;;;;;;;19.10;56.60;;;;;;4991898;28;19975;-70
2022/04/23 00:15:43;;;;;;;;;;;19.00;56.60;;;;;;4988443;28;19913;-68
2022/04/23 00:18:08;;;;;;;;;;;19.10;56.60;;;;;;5002872;28;20520;-68
2022/04/23 00:20:35;;;;;;;;;;;19.00;56.60;;;;;;4987620;28;19913;-69
2022/04/23 00:23:00;;;;;;;;;;;19.10;56.60;;;;;;5004531;28;19964;-68
2022/04/23 00:25:26;;;;;;;;;;;19.10;56.60;;;;;;5004528;28;19921;-70
2022/04/23 00:27:52;;;;;;;;;;;19.00;56.60;;;;;;5005925;28;20523;-68
2022/04/23 00:30:17;;;;;;;;;;;19.10;56.60;;;;;;4988153;28;19918;-68
2022/04/23 00:32:42;;;;;;;;;;;19.00;56.60;;;;;;4987354;28;20701;-68
2022/04/23 00:35:12;;;;;;;;;;;19.00;56.60;;;;;;4988952;28;19922;-67
2022/04/23 00:37:38;;;;;;;;;;;19.10;56.60;;;;;;4988464;28;19971;-69
2022/04/23 00:40:06;;;;;;;;;;;19.00;56.60;;;;;;5018955;28;19921;-68
2022/04/23 00:42:32;;;;;;;;;;;19.00;56.60;;;;;;5006272;28;19914;-69
2022/04/23 00:44:57;;;;;;;;;;;19.00;56.60;;;;;;4976083;28;19914;-69
2022/04/23 00:47:23;;;;;;;;;;;19.00;56.60;;;;;;4987698;28;19920;-70
2022/04/23 00:49:48;;;;;;;;;;;19.00;56.60;;;;;;4997790;28;19967;-69
2022/04/23 00:52:14;;;;;;;;;;;19.00;56.60;;;;;;5004309;28;19913;-69
2022/04/23 00:54:39;;;;;;;;;;;19.00;56.60;;;;;;4978474;28;20589;-70
2022/04/23 00:57:05;;;;;;;;;;;19.00;56.60;;;;;;5005257;28;20030;-69
2022/04/23 00:59:31;;;;;;;;;;;19.00;56.60;;;;;;4994598;28;19945;-70
2022/04/23 01:01:56;;;;;;;;;;;19.00;56.60;;;;;;5004920;28;19909;-69
2022/04/23 01:04:21;;;;;;;;;;;19.00;56.60;;;;;;4981664;28;20392;-69
2022/04/23 01:06:47;;;;;;;;;;;19.00;56.60;;;;;;4988053;28;19967;-69
2022/04/23 01:09:12;;;;;;;;;;;19.00;56.60;;;;;;4989938;28;19918;-68
2022/04/23 01:11:38;;;;;;;;;;;19.00;56.60;;;;;;5004926;28;19957;-68
2022/04/23 01:14:03;;;;;;;;;;;19.00;56.60;;;;;;5003227;28;19936;-69
2022/04/23 01:16:29;;;;;;;;;;;19.00;56.60;;;;;;4970828;28;19913;-69
2022/04/23 01:18:54;;;;;;;;;;;19.00;56.60;;;;;;5003937;28;19972;-69
2022/04/23 01:21:20;;;;;;;;;;;19.00;56.60;;;;;;5003878;28;20090;-70
2022/04/23 01:23:46;;;;;;;;;;;19.00;56.60;;;;;;4991054;28;19916;-69
2022/04/23 01:26:11;;;;;;;;;;;19.00;56.60;;;;;;4988545;28;20230;-69
2022/04/23 01:28:37;;;;;;;;;;;19.00;56.60;;;;;;5004742;28;19909;-69
2022/04/23 01:31:06;;;;;;;;;;;19.00;56.50;;;;;;4990672;28;19936;-68
2022/04/23 01:33:35;;;;;;;;;;;19.00;56.50;;;;;;4986908;28;19922;-68
2022/04/23 01:36:00;;;;;;;;;;;19.00;56.60;;;;;;5001389;28;19913;-69
2022/04/23 01:38:26;;;;;;;;;;;19.00;56.50;;;;;;5004559;28;19928;-69
2022/04/23 01:40:52;;;;;;;;;;;19.00;56.50;;;;;;4974811;28;20420;-69
2022/04/23 01:43:17;;;;;;;;;;;18.90;56.50;;;;;;4988218;28;19914;-70
2022/04/23 01:45:44;;;;;;;;;;;19.00;56.50;;;;;;4981210;28;19918;-69
2022/04/23 01:48:09;;;;;;;;;;;19.00;56.50;;;;;;5006008;28;19925;-68
2022/04/23 01:50:35;;;;;;;;;;;19.00;56.50;;;;;;4994236;28;20601;-69
2022/04/23 01:53:01;;;;;;;;;;;19.00;56.50;;;;;;5004719;28;19920;-68
2022/04/23 01:55:27;;;;;;;;;;;19.00;56.50;;;;;;4978353;28;19971;-69
2022/04/23 01:57:52;;;;;;;;;;;18.90;56.40;;;;;;5004595;28;19909;-68
2022/04/23 02:00:17;;;;;;;;;;;19.00;56.50;;;;;;4998447;28;19913;-68
2022/04/23 02:02:43;;;;;;;;;;;19.00;56.50;;;;;;5010309;28;20480;-72
2022/04/23 02:05:09;;;;;;;;;;;19.00;56.40;;;;;;4978139;28;20380;-69
2022/04/23 02:07:37;;;;;;;;;;;19.00;56.40;;;;;;5007733;28;19936;-69
2022/04/23 02:10:07;;;;;;;;;;;18.90;56.40;;;;;;4998617;28;19917;-68
2022/04/23 02:12:33;;;;;;;;;;;18.90;56.40;;;;;;4991130;28;20503;-69
2022/04/23 02:14:59;;;;;;;;;;;18.90;56.40;;;;;;4975271;28;19909;-69
2022/04/23 02:17:34;;;;;;;;;;;18.90;56.40;;;;;;5007968;28;19928;-69
2022/04/23 02:20:06;;;;;;;;;;;18.90;56.40;;;;;;5008321;28;19913;-70
2022/04/23 02:22:32;;;;;;;;;;;18.90;56.30;;;;;;4974606;28;19917;-70
2022/04/23 02:24:57;;;;;;;;;;;18.90;56.30;;;;;;5008355;28;20407;-68
2022/04/23 02:27:23;;;;;;;;;;;18.90;56.30;;;;;;4991849;28;20000;-68
2022/04/23 02:29:50;;;;;;;;;;;18.90;56.30;;;;;;5006164;28;19914;-69
2022/04/23 02:32:15;;;;;;;;;;;18.90;56.30;;;;;;5008524;28;19988;-68
2022/04/23 02:34:41;;;;;;;;;;;18.90;56.30;;;;;;5008720;28;19919;-69
2022/04/23 02:37:07;;;;;;;;;;;18.90;56.30;;;;;;5006173;28;19921;-68
2022/04/23 02:39:33;;;;;;;;;;;18.90;56.30;;;;;;5006766;28;19964;-68
2022/04/23 02:41:58;;;;;;;;;;;18.90;56.30;;;;;;5007400;28;19949;-69
2022/04/23 02:44:25;;;;;;;;;;;18.90;56.20;;;;;;4976355;28;19925;-68
2022/04/23 02:46:52;;;;;;;;;;;18.90;56.30;;;;;;5008199;28;19917;-68
2022/04/23 02:49:17;;;;;;;;;;;18.90;56.20;;;;;;5005784;28;20004;-70
2022/04/23 02:51:43;;;;;;;;;;;18.90;56.20;;;;;;4996362;28;20047;-69
2022/04/23 02:54:08;;;;;;;;;;;18.90;56.20;;;;;;4974058;28;19960;-69
2022/04/23 02:56:34;;;;;;;;;;;18.90;56.30;;;;;;4998671;28;19917;-70
2022/04/23 02:59:02;;;;;;;;;;;18.90;56.20;;;;;;5005906;28;19913;-69
2022/04/23 03:01:28;;;;;;;;;;;18.90;56.20;;;;;;5007918;28;19921;-69
2022/04/23 03:03:54;;;;;;;;;;;18.90;56.20;;;;;;5008037;28;20356;-68
2022/04/23 03:06:20;;;;;;;;;;;18.80;56.20;;;;;;4979499;28;19917;-69
2022/04/23 03:08:46;;;;;;;;;;;18.80;56.20;;;;;;5006027;28;20060;-67
2022/04/23 03:11:11;;;;;;;;;;;18.80;56.20;;;;;;5001349;28;20290;-69
2022/04/23 03:13:36;;;;;;;;;;;18.80;56.10;;;;;;5005633;28;19917;-69
2022/04/23 03:16:02;;;;;;;;;;;18.80;56.10;;;;;;4991110;28;19917;-68
2022/04/23 03:18:28;;;;;;;;;;;18.80;56.10;;;;;;5006383;28;19921;-67
2022/04/23 03:20:53;;;;;;;;;;;18.80;56.10;;;;;;5005465;28;20428;-70
2022/04/23 03:23:19;;;;;;;;;;;18.80;56.10;;;;;;4977588;28;19913;-67
2022/04/23 03:25:45;;;;;;;;;;;18.80;56.10;;;;;;5005140;28;19917;-70
2022/04/23 03:28:13;;;;;;;;;;;18.80;56.10;;;;;;5005348;28;19929;-67
2022/04/23 03:30:39;;;;;;;;;;;18.80;56.10;;;;;;5005887;28;19921;-66
2022/04/23 03:33:04;;;;;;;;;;;18.80;56.10;;;;;;4996735;28;20016;-66
2022/04/23 03:35:30;;;;;;;;;;;18.80;56.00;;;;;;4988615;28;19940;-65
2022/04/23 03:37:56;;;;;;;;;;;18.80;56.00;;;;;;5001617;28;20261;-70
2022/04/23 03:40:21;;;;;;;;;;;18.80;56.10;;;;;;4972287;28;19926;-68
2022/04/23 03:42:48;;;;;;;;;;;18.80;56.10;;;;;;5006417;28;19913;-68
2022/04/23 03:45:14;;;;;;;;;;;18.80;56.10;;;;;;4989626;28;19913;-70
2022/04/23 03:47:45;;;;;;;;;;;18.80;56.10;;;;;;5007765;28;19920;-69
2022/04/23 03:50:11;;;;;;;;;;;18.80;56.10;;;;;;5005170;28;20001;-69
2022/04/23 03:52:36;;;;;;;;;;;18.80;56.10;;;;;;4997095;28;20024;-68
2022/04/23 03:55:02;;;;;;;;;;;18.80;56.70;;;;;;4987692;28;20320;-68
2022/04/23 03:57:27;;;;;;;;;;;18.80;56.10;;;;;;5007122;28;19972;-69
2022/04/23 03:59:53;;;;;;;;;;;18.70;56.00;;;;;;5004700;28;20284;-70
2022/04/23 04:02:18;;;;;;;;;;;18.70;56.00;;;;;;4999926;28;19937;-68
2022/04/23 04:04:45;;;;;;;;;;;18.80;56.00;;;;;;4988222;28;19910;-69
2022/04/23 04:07:10;;;;;;;;;;;18.80;56.00;;;;;;5006988;28;19940;-70
2022/04/23 04:09:35;;;;;;;;;;;18.80;56.00;;;;;;4987621;28;20616;-68
2022/04/23 04:12:01;;;;;;;;;;;18.80;56.60;;;;;;5005462;28;19921;-69
2022/04/23 04:14:36;;;;;;;;;;;18.70;56.00;;;;;;4988604;28;19928;-69
2022/04/23 04:17:02;;;;;;;;;;;18.80;56.00;;;;;;5006359;28;19953;-69
2022/04/23 04:19:27;;;;;;;;;;;18.80;56.00;;;;;;5005965;28;20395;-69
2022/04/23 04:21:54;;;;;;;;;;;18.80;56.00;;;;;;5005275;28;19909;-69
2022/04/23 04:24:19;;;;;;;;;;;18.70;55.90;;;;;;5005911;28;20484;-68
2022/04/23 04:26:46;;;;;;;;;;;18.80;56.00;;;;;;4989316;28;19918;-67
2022/04/23 04:29:12;;;;;;;;;;;18.80;56.00;;;;;;5006089;28;20703;-69
2022/04/23 04:31:49;;;;;;;;;;;18.70;56.00;;;;;;5004468;28;19917;-68
2022/04/23 04:34:20;;;;;;;;;;;18.80;56.00;;;;;;4970218;28;19960;-67
2022/04/23 04:36:46;;;;;;;;;;;18.80;56.00;;;;;;4985205;28;19921;-68
2022/04/23 04:39:12;;;;;;;;;;;18.70;56.00;;;;;;4982406;28;20028;-68
2022/04/23 04:41:38;;;;;;;;;;;18.80;56.00;;;;;;4985648;28;19988;-68
2022/04/23 04:44:04;;;;;;;;;;;18.80;56.00;;;;;;5000367;28;19917;-68
2022/04/23 04:46:30;;;;;;;;;;;18.80;56.00;;;;;;5004315;28;20020;-69
2022/04/23 04:48:56;;;;;;;;;;;18.80;55.90;;;;;;4974708;28;20479;-69
2022/04/23 04:51:21;;;;;;;;;;;18.80;56.60;;;;;;5004853;28;19910;-70
2022/04/23 04:53:46;;;;;;;;;;;18.80;55.90;;;;;;4998049;28;20423;-69
2022/04/23 04:56:12;;;;;;;;;;;18.80;56.00;;;;;;5004264;28;19937;-69
2022/04/23 04:58:37;;;;;;;;;;;18.80;55.90;;;;;;5004463;28;19921;-68
2022/04/23 05:01:03;;;;;;;;;;;18.80;55.90;;;;;;5005334;28;19925;-68
2022/04/23 05:03:29;;;;;;;;;;;18.80;55.90;;;;;;4977744;28;20277;-69
2022/04/23 05:05:54;;;;;;;;;;;18.80;55.80;;;;;;5005151;28;20376;-68
2022/04/23 05:08:20;;;;;;;;;;;18.80;55.80;;;;;;4998526;28;20402;-68
2022/04/23 05:10:46;;;;;;;;;;;18.90;55.80;;;;;;4987521;28;19917;-67
2022/04/23 05:13:11;;;;;;;;;;;18.80;55.80;;;;;;4973160;28;19917;-69
2022/04/23 05:15:37;;;;;;;;;;;18.90;56.00;;;;;;5004767;28;20315;-69
2022/04/23 05:18:03;;;;;;;;;;;18.90;55.90;;;;;;5003580;28;19910;-70
2022/04/23 05:20:28;;;;;;;;;;;18.90;55.90;;;;;;4986563;28;19953;-69
2022/04/23 05:22:54;;;;;;;;;;;18.90;56.00;;;;;;4978758;28;19917;-69
2022/04/23 05:25:19;;;;;;;;;;;18.90;56.00;;;;;;5003970;28;19956;-69
2022/04/23 05:27:45;;;;;;;;;;;18.90;56.00;;;;;;5005310;28;19917;-69
2022/04/23 05:30:10;;;;;;;;;;;18.90;56.00;;;;;;5004184;28;19925;-68
2022/04/23 05:32:36;;;;;;;;;;;18.90;56.00;;;;;;4987449;28;20787;-69
2022/04/23 05:35:01;;;;;;;;;;;18.90;56.00;;;;;;5001473;28;19924;-70
2022/04/23 05:37:26;;;;;;;;;;;18.90;56.10;;;;;;4986618;28;19913;-68
2022/04/23 05:39:52;;;;;;;;;;;18.90;56.20;;;;;;5003858;28;19929;-69
2022/04/23 05:42:17;;;;;;;;;;;18.90;56.50;;;;;;5004354;28;19952;-69
2022/04/23 05:44:43;;;;;;;;;;;18.90;56.40;;;;;;5004927;28;20257;-69
2022/04/23 05:47:08;;;;;;;;;;;18.90;56.40;;;;;;5003931;28;19909;-70
2022/04/23 05:49:37;;;;;;;;;;;18.90;56.40;;;;;;4993551;28;19913;-69
2022/04/23 05:52:02;;;;;;;;;;;18.90;56.00;;;;;;5004299;28;19910;-69
2022/04/23 05:54:28;;;;;;;;;;;18.90;56.00;;;;;;4994899;28;19952;-69
2022/04/23 05:56:53;;;;;;;;;;;18.90;56.20;;;;;;4990670;28;20403;-69
2022/04/23 05:59:19;;;;;;;;;;;18.90;56.10;;;;;;4985195;28;19922;-70
2022/04/23 06:01:44;;;;;;;;;;;18.90;56.10;;;;;;4990963;28;19909;-69
2022/04/23 06:04:09;;;;;;;;;;;18.80;56.10;;;;;;4986920;28;19920;-69
2022/04/23 06:06:35;;;;;;;;;;;18.80;56.10;;;;;;4971506;28;20721;-70
2022/04/23 06:09:00;;;;;;;;;;;18.80;56.10;;;;;;4988960;28;19917;-69
2022/04/23 06:11:26;;;;;;;;;;;18.80;56.10;;;;;;5003167;28;19921;-69
2022/04/23 06:13:51;;;;;;;;;;;18.80;56.10;;;;;;5002968;28;19971;-70
2022/04/23 06:16:17;;;;;;;;;;;18.80;56.10;;;;;;5004313;28;20499;-69
2022/04/23 06:18:42;;;;;;;;;;;18.80;56.10;;;;;;5003187;28;19918;-68
2022/04/23 06:21:08;;;;;;;;;;;18.80;56.10;;;;;;5004428;28;19921;-68
2022/04/23 06:23:33;;;;;;;;;;;18.80;56.10;;;;;;5005617;28;19944;-69
2022/04/23 06:25:59;;;;;;;;;;;18.80;56.50;;;;;;4971756;28;19918;-68
2022/04/23 06:28:24;;;;;;;;;;;18.90;56.70;;;;;;5003981;28;19963;-66
2022/04/23 06:30:50;;;;;;;;;;;19.00;56.60;;;;;;5002941;28;19952;-68
2022/04/23 06:33:16;;;;;;;;;;;19.10;56.60;;;;;;5002677;28;20389;-68
2022/04/23 06:35:41;;;;;;;;;;;19.10;57.40;;;;;;5003209;28;19917;-68
2022/04/23 06:38:07;;;;;;;;;;;19.20;57.20;;;;;;5004532;28;20284;-71
2022/04/23 06:40:32;;;;;;;;;;;19.30;57.70;;;;;;4996474;28;19964;-68
2022/04/23 06:42:57;;;;;;;;;;;19.30;58.10;;;;;;5005289;28;19922;-67
2022/04/23 06:45:23;;;;;;;;;;;19.30;58.30;;;;;;4994805;28;19909;-70
2022/04/23 06:47:56;;;;;;;;;;;19.30;58.40;;;;;;5008263;28;20307;-69
2022/04/23 06:50:22;;;;;;;;;;;19.30;58.20;;;;;;5007766;28;19922;-68
2022/04/23 06:52:47;;;;;;;;;;;19.30;57.80;;;;;;5007102;28;20178;-68
2022/04/23 06:55:13;;;;;;;;;;;19.30;57.70;;;;;;5007557;28;19918;-68
2022/04/23 06:57:42;;;;;;;;;;;19.30;57.70;;;;;;5009157;28;20292;-68
2022/04/23 07:00:11;;;;;;;;;;;19.20;57.50;;;;;;4994138;28;20353;-68
2022/04/23 07:02:36;;;;;;;;;;;19.20;57.40;;;;;;5005904;28;19971;-68
2022/04/23 07:05:02;;;;;;;;;;;19.20;57.30;;;;;;5007301;28;19921;-69
2022/04/23 07:07:27;;;;;;;;;;;19.10;57.20;;;;;;4991105;28;19921;-69
2022/04/23 07:09:53;;;;;;;;;;;19.10;57.10;;;;;;5007905;28;19920;-68
2022/04/23 07:12:19;;;;;;;;;;;19.10;57.00;;;;;;4991423;28;20277;-70
2022/04/23 07:14:44;;;;;;;;;;;19.10;57.60;;;;;;5007238;28;19914;-68
2022/04/23 07:17:10;;;;;;;;;;;19.10;57.00;;;;;;4974177;28;19924;-67
2022/04/23 07:19:39;;;;;;;;;;;19.10;57.00;;;;;;5007270;28;19933;-68
2022/04/23 07:22:05;;;;;;;;;;;19.10;57.00;;;;;;4990523;28;19975;-68
2022/04/23 07:24:30;;;;;;;;;;;19.10;56.90;;;;;;5006759;28;19914;-69
2022/04/23 07:26:58;;;;;;;;;;;19.10;57.10;;;;;;4990297;28;20131;-68
2022/04/23 07:29:24;;;;;;;;;;;19.10;58.10;;;;;;4989910;28;19933;-68
2022/04/23 07:31:49;;;;;;;;;;;19.10;58.30;;;;;;5004618;28;20331;-68
2022/04/23 07:39:44;;;;;;;;;;;19.20;59.10;;;;;;5006767;28;19928;-69
2022/04/23 07:42:09;;;;;;;;;;;19.20;59.30;;;;;;5004825;28;20280;-68
2022/04/23 07:44:36;;;;;;;;;;;19.20;59.30;;;;;;5006102;28;19922;-68
2022/04/23 07:47:02;;;;;;;;;;;19.20;59.30;;;;;;5006979;28;19948;-69
2022/04/23 07:49:27;;;;;;;;;;;19.20;59.10;;;;;;5005529;28;19952;-69
2022/04/23 07:51:53;;;;;;;;;;;19.20;59.30;;;;;;5001554;28;19914;-68
2022/04/23 07:54:18;;;;;;;;;;;19.20;59.30;;;;;;5007021;28;20009;-67
2022/04/23 07:56:44;;;;;;;;;;;19.30;59.30;;;;;;4986286;28;20436;-69
2022/04/23 07:59:09;;;;;;;;;;;19.30;58.90;;;;;;4989018;28;19925;-69
2022/04/23 08:01:35;;;;;;;;;;;19.20;58.60;;;;;;4997532;28;19925;-67
2022/04/23 08:04:03;;;;;;;;;;;19.20;58.00;;;;;;5006082;28;19921;-68
2022/04/23 08:06:28;;;;;;;;;;;19.30;57.80;;;;;;4998973;28;19920;-69
2022/04/23 08:08:53;;;;;;;;;;;19.30;57.80;;;;;;5005120;28;19993;-71
2022/04/23 08:11:22;;;;;;;;;;;19.30;57.60;;;;;;5005236;28;19924;-67
2022/04/23 08:13:48;;;;;;;;;;;19.20;57.40;;;;;;5005612;28;20557;-68
2022/04/23 08:16:14;;;;;;;;;;;19.20;57.20;;;;;;4985251;28;19941;-69
2022/04/23 08:18:39;;;;;;;;;;;19.20;57.30;;;;;;4989639;28;19914;-66
2022/04/23 08:21:04;;;;;;;;;;;19.20;57.20;;;;;;5005016;28;19945;-69
2022/04/23 08:23:33;;;;;;;;;;;19.20;57.30;;;;;;5000102;28;19937;-69
2022/04/23 08:26:00;;;;;;;;;;;19.30;57.30;;;;;;5003285;28;20873;-67
2022/04/23 08:31:12;;;;;;;;;;;19.40;56.90;;;;;;5003164;28;19924;-64
2022/04/23 08:36:22;;;;;;;;;;;19.50;56.70;;;;;;5011180;28;19920;-65
2022/04/23 08:38:47;;;;;;;;;;;19.50;56.60;;;;;;4976025;28;19921;-67
2022/04/23 08:41:13;;;;;;;;;;;19.50;56.60;;;;;;5005185;28;20032;-65
2022/04/23 08:43:41;;;;;;;;;;;19.50;56.70;;;;;;4995119;28;20292;-67
2022/04/23 08:46:06;;;;;;;;;;;19.50;56.60;;;;;;5004353;28;19975;-66
2022/04/23 08:48:36;;;;;;;;;;;19.50;56.70;;;;;;4993015;28;20396;-67
2022/04/23 08:51:03;;;;;;;;;;;19.40;56.70;;;;;;5004208;28;20594;-64
2022/04/23 08:53:31;;;;;;;;;;;19.40;56.70;;;;;;5001425;28;19909;-65
2022/04/23 08:55:56;;;;;;;;;;;19.40;56.70;;;;;;5004036;28;19921;-67
2022/04/23 08:58:23;;;;;;;;;;;19.40;56.70;;;;;;4976402;28;19972;-67
2022/04/23 09:00:48;;;;;;;;;;;19.40;56.80;;;;;;5003595;28;20000;-65
2022/04/23 09:03:14;;;;;;;;;;;19.40;56.80;;;;;;4997886;28;20003;-67
2022/04/23 09:05:40;;;;;;;;;;;19.40;56.80;;;;;;5015315;28;19914;-63
2022/04/23 09:08:07;;;;;;;;;;;19.40;56.90;;;;;;4992700;28;20279;-63
2022/04/23 09:10:45;;;;;;;;;;;19.40;56.80;;;;;;5004500;28;20329;-64
2022/04/23 09:13:11;;;;;;;;;;;19.40;56.80;;;;;;5005162;28;19918;-64
2022/04/23 09:24:10;;;;;;;;;;;19.40;56.70;;;;;;5005177;28;19928;-70
2022/04/23 09:26:36;;;;;;;;;;;19.40;56.70;;;;;;5004263;28;20617;-68
2022/04/23 09:29:14;;;;;;;;;;;19.40;56.80;;;;;;5003583;28;20126;-65
2022/04/23 09:31:40;;;;;;;;;;;19.40;56.70;;;;;;5003928;28;19916;-67
2022/04/23 09:34:18;;;;;;;;;;;19.40;56.70;;;;;;5005032;28;19909;-64
2022/04/23 09:36:50;;;;;;;;;;;19.40;56.70;;;;;;5003751;28;19918;-67
2022/04/23 09:39:27;;;;;;;;;;;19.30;56.70;;;;;;4983846;28;20397;-66
2022/04/23 09:41:52;;;;;;;;;;;19.30;56.60;;;;;;4967658;28;19909;-67
2022/04/23 09:44:17;;;;;;;;;;;19.30;56.70;;;;;;5004055;28;19960;-68
2022/04/23 09:46:46;;;;;;;;;;;19.30;56.70;;;;;;5003192;28;19910;-67
2022/04/23 09:49:12;;;;;;;;;;;19.30;56.70;;;;;;5002999;28;20353;-67
2022/04/23 09:51:37;;;;;;;;;;;19.30;56.60;;;;;;5004115;28;20436;-68
2022/04/23 09:54:03;;;;;;;;;;;19.30;56.70;;;;;;5004433;28;19915;-67
2022/04/23 09:56:28;;;;;;;;;;;19.30;56.70;;;;;;5003074;28;20261;-66
2022/04/23 09:58:54;;;;;;;;;;;19.30;56.80;;;;;;5002770;28;20289;-65
2022/04/23 10:01:20;;;;;;;;;;;19.30;56.70;;;;;;5003958;28;19926;-69
2022/04/23 10:03:49;;;;;;;;;;;19.30;56.70;;;;;;4995491;28;19992;-66
2022/04/23 10:06:15;;;;;;;;;;;19.30;56.60;;;;;;5004566;28;20647;-67
2022/04/23 10:08:43;;;;;;;;;;;19.30;56.60;;;;;;4994126;28;20585;-66
2022/04/23 10:11:09;;;;;;;;;;;19.30;56.60;;;;;;4986264;28;19928;-65
2022/04/23 10:13:34;;;;;;;;;;;19.30;56.60;;;;;;5004063;28;19917;-64
2022/04/23 10:16:02;;;;;;;;;;;19.30;57.20;;;;;;5003992;28;20373;-66
2022/04/23 10:18:27;;;;;;;;;;;19.30;56.50;;;;;;4996907;28;19921;-65
2022/04/23 10:20:55;;;;;;;;;;;19.30;56.50;;;;;;5004667;28;19917;-65
2022/04/23 10:23:41;;;;;;;;;;;19.30;56.50;;;;;;4993795;28;20343;-67
2022/04/23 10:26:25;;;;;;;;;;;19.30;56.50;;;;;;4981256;28;19913;-66
2022/04/23 10:28:50;;;;;;;;;;;19.30;56.50;;;;;;5005776;28;19929;-67
2022/04/23 10:31:16;;;;;;;;;;;19.30;56.50;;;;;;5007016;28;19979;-67
2022/04/23 10:33:54;;;;;;;;;;;19.30;56.50;;;;;;5007543;28;19924;-63
2022/04/23 10:36:20;;;;;;;;;;;19.30;56.50;;;;;;5007835;28;20387;-65
2022/04/23 10:38:51;;;;;;;;;;;19.30;56.50;;;;;;4993747;28;19914;-68
2022/04/23 10:41:16;;;;;;;;;;;19.30;56.50;;;;;;5005972;28;20048;-70
2022/04/23 10:43:46;;;;;;;;;;;19.30;56.50;;;;;;5000579;28;19993;-64
2022/04/23 10:46:30;;;;;;;;;;;19.20;56.50;;;;;;4990257;28;20311;-65
2022/04/23 10:48:57;;;;;;;;;;;19.20;56.50;;;;;;5006658;28;19956;-66
2022/04/23 10:51:22;;;;;;;;;;;19.20;56.50;;;;;;5006152;28;19914;-69
2022/04/23 10:53:48;;;;;;;;;;;19.20;56.50;;;;;;5002669;28;19965;-68
2022/04/23 10:56:17;;;;;;;;;;;19.20;56.40;;;;;;4989554;28;20000;-65
2022/04/23 10:58:42;;;;;;;;;;;19.20;56.50;;;;;;4990421;28;19918;-64
2022/04/23 11:01:16;;;;;;;;;;;19.20;56.50;;;;;;5007346;28;20435;-68
2022/04/23 11:03:43;;;;;;;;;;;19.20;56.60;;;;;;5006772;28;20022;-68
2022/04/23 11:12:16;;;;;;;;;;;19.20;56.40;;;;;;5006986;28;19936;-66
2022/04/23 11:14:44;;;;;;;;;;;19.20;56.40;;;;;;4997325;28;20549;-66
2022/04/23 11:17:13;;;;;;;;;;;19.20;56.50;;;;;;5007096;28;20011;-64
2022/04/23 11:19:39;;;;;;;;;;;19.20;56.50;;;;;;4978580;28;19960;-68
2022/04/23 11:22:04;;;;;;;;;;;19.20;56.40;;;;;;5007637;28;19917;-69
2022/04/23 11:24:30;;;;;;;;;;;19.20;56.50;;;;;;5000387;28;20720;-66
2022/04/23 11:26:56;;;;;;;;;;;19.20;56.40;;;;;;4988536;28;20134;-68
2022/04/23 11:29:21;;;;;;;;;;;19.20;56.50;;;;;;5006252;28;19917;-68
2022/04/23 11:31:51;;;;;;;;;;;19.20;56.40;;;;;;5006326;28;19936;-70
2022/04/23 11:34:17;;;;;;;;;;;19.20;56.40;;;;;;5003594;28;19910;-68
2022/04/23 11:36:42;;;;;;;;;;;19.20;56.60;;;;;;4989309;28;19913;-65
2022/04/23 11:39:09;;;;;;;;;;;19.20;56.40;;;;;;5005869;28;19925;-67
2022/04/23 11:41:43;;;;;;;;;;;19.20;56.50;;;;;;5006031;28;19921;-67
2022/04/23 11:44:12;;;;;;;;;;;19.20;56.40;;;;;;4985902;28;19913;-65
2022/04/23 11:46:41;;;;;;;;;;;19.30;56.50;;;;;;4989486;28;19924;-66
2022/04/23 11:49:07;;;;;;;;;;;19.20;56.40;;;;;;4962959;28;19914;-66
2022/04/23 11:51:32;;;;;;;;;;;19.20;56.40;;;;;;5007290;28;20005;-64
2022/04/23 11:53:58;;;;;;;;;;;19.30;56.40;;;;;;5006851;28;19973;-64
2022/04/23 11:56:24;;;;;;;;;;;19.30;56.40;;;;;;4989716;28;19913;-68
2022/04/23 11:58:51;;;;;;;;;;;19.30;56.40;;;;;;4988036;28;21836;-66
2022/04/23 12:01:17;;;;;;;;;;;19.30;56.40;;;;;;5007346;28;20011;-67
2022/04/23 12:03:51;;;;;;;;;;;19.30;56.50;;;;;;5005082;28;20335;-64
2022/04/23 12:06:17;;;;;;;;;;;19.30;56.40;;;;;;4992086;28;19921;-66
2022/04/23 12:08:42;;;;;;;;;;;19.30;56.40;;;;;;5004918;28;19979;-64
2022/04/23 12:11:20;;;;;;;;;;;19.30;56.40;;;;;;4984275;28;19921;-68
2022/04/23 12:13:48;;;;;;;;;;;19.30;56.40;;;;;;5005319;28;19909;-65
2022/04/23 12:16:30;;;;;;;;;;;19.30;56.40;;;;;;4993537;28;20007;-65
2022/04/23 12:19:02;;;;;;;;;;;19.30;56.40;;;;;;5005253;28;19979;-68
2022/04/23 12:21:27;;;;;;;;;;;19.30;56.30;;;;;;5001833;28;20616;-69
2022/04/23 12:23:53;;;;;;;;;;;19.30;56.30;;;;;;5003997;28;19970;-64
2022/04/23 12:26:19;;;;;;;;;;;19.30;56.30;;;;;;5006102;28;19914;-67
2022/04/23 12:42:21;;;;;;;;;;;19.30;56.30;;;;;;5005486;28;20056;-65
2022/04/23 12:44:46;;;;;;;;;;;19.30;56.40;;;;;;5005833;28;20431;-67
2022/04/23 12:47:13;;;;;;;;;;;19.30;56.30;;;;;;5006144;28;19914;-66
2022/04/23 12:49:45;;;;;;;;;;;19.30;56.30;;;;;;5006257;28;19963;-67
2022/04/23 12:52:12;;;;;;;;;;;19.30;56.40;;;;;;5006521;28;19909;-65
2022/04/23 12:54:38;;;;;;;;;;;19.40;56.30;;;;;;5005659;28;20000;-64
2022/04/23 12:57:13;;;;;;;;;;;19.30;56.30;;;;;;5006156;28;19925;-67
2022/04/23 12:59:38;;;;;;;;;;;19.40;56.30;;;;;;5004534;28;19928;-66
2022/04/23 13:02:05;;;;;;;;;;;19.30;56.20;;;;;;5004604;28;19910;-68
2022/04/23 13:04:30;;;;;;;;;;;19.30;56.30;;;;;;5004688;28;19909;-67
2022/04/23 13:09:40;;;;;;;;;;;19.30;56.20;;;;;;4993048;28;19920;-68
2022/04/23 13:12:05;;;;;;;;;;;19.40;56.30;;;;;;5004733;28;19921;-66
2022/04/23 13:14:31;;;;;;;;;;;19.40;56.30;;;;;;5004541;28;19944;-69
2022/04/23 13:16:57;;;;;;;;;;;19.30;56.20;;;;;;5004439;28;19917;-68
2022/04/23 13:19:23;;;;;;;;;;;19.40;56.30;;;;;;5004112;28;19914;-66
2022/04/23 13:21:48;;;;;;;;;;;19.40;56.20;;;;;;5003829;28;19914;-64
2022/04/23 13:24:14;;;;;;;;;;;19.40;56.20;;;;;;5004466;28;19917;-64
2022/04/23 13:26:39;;;;;;;;;;;19.40;56.30;;;;;;5004914;28;20265;-64
2022/04/23 13:29:05;;;;;;;;;;;19.40;56.30;;;;;;5003922;28;19928;-67
2022/04/23 13:31:31;;;;;;;;;;;19.40;56.30;;;;;;4994780;28;20754;-68
2022/04/23 13:33:56;;;;;;;;;;;19.40;56.30;;;;;;5003237;28;19917;-69
2022/04/23 13:36:21;;;;;;;;;;;19.40;56.20;;;;;;4987442;28;19914;-69
2022/04/23 13:38:48;;;;;;;;;;;19.40;56.30;;;;;;5003734;28;20368;-68
2022/04/23 13:41:13;;;;;;;;;;;19.40;56.20;;;;;;5004065;28;19921;-69
2022/04/23 13:43:39;;;;;;;;;;;19.40;56.20;;;;;;5004958;28;19918;-66
2022/04/23 13:46:04;;;;;;;;;;;19.40;56.20;;;;;;5002800;28;20329;-65
2022/04/23 13:48:30;;;;;;;;;;;19.40;56.20;;;;;;5002100;28;19918;-66
2022/04/23 13:50:55;;;;;;;;;;;19.40;56.10;;;;;;5003845;28;19996;-67
2022/04/23 13:53:21;;;;;;;;;;;19.40;56.10;;;;;;5004059;28;19913;-63
2022/04/23 13:55:47;;;;;;;;;;;19.40;56.10;;;;;;5003596;28;19910;-65
2022/04/23 13:58:12;;;;;;;;;;;19.40;56.10;;;;;;5004604;28;19914;-67
2022/04/23 14:00:37;;;;;;;;;;;19.40;56.10;;;;;;5003902;28;19922;-68
2022/04/23 14:11:16;;;;;;;;;;;19.40;56.10;;;;;;5005131;28;19921;-66
2022/04/23 14:13:41;;;;;;;;;;;19.50;56.10;;;;;;5004288;28;19917;-64
2022/04/23 14:16:06;;;;;;;;;;;19.40;56.10;;;;;;5004394;28;19932;-66
2022/04/23 14:18:32;;;;;;;;;;;19.40;56.10;;;;;;5003313;28;19953;-64
2022/04/23 14:20:58;;;;;;;;;;;19.50;56.10;;;;;;5004405;28;19914;-63
2022/04/23 14:23:23;;;;;;;;;;;19.50;56.20;;;;;;5004677;28;20294;-66
2022/04/23 14:25:49;;;;;;;;;;;19.50;56.20;;;;;;5004409;28;20565;-67
2022/04/23 14:28:15;;;;;;;;;;;19.50;56.10;;;;;;5004155;28;19920;-68
2022/04/23 14:30:40;;;;;;;;;;;19.50;56.10;;;;;;5003740;28;19913;-68
2022/04/23 14:33:06;;;;;;;;;;;19.50;56.20;;;;;;5003838;28;20006;-65
2022/04/23 14:35:33;;;;;;;;;;;19.50;56.10;;;;;;4986229;28;20027;-65
2022/04/23 14:37:59;;;;;;;;;;;19.50;56.10;;;;;;5003752;28;19916;-65
2022/04/23 14:40:24;;;;;;;;;;;19.50;56.20;;;;;;4985768;28;19913;-63
2022/04/23 14:42:51;;;;;;;;;;;19.50;56.10;;;;;;4998167;28;19970;-65
2022/04/23 14:45:18;;;;;;;;;;;19.50;56.20;;;;;;4987313;28;19921;-68
2022/04/23 14:47:44;;;;;;;;;;;19.50;56.20;;;;;;4990813;28;19918;-64
2022/04/23 14:50:09;;;;;;;;;;;19.50;56.10;;;;;;5003994;28;19914;-64
2022/04/23 14:55:19;;;;;;;;;;;19.50;56.10;;;;;;4988871;28;19919;-63
2022/04/23 14:57:44;;;;;;;;;;;19.50;56.10;;;;;;5002878;28;19914;-65
2022/04/23 15:00:11;;;;;;;;;;;19.50;56.50;;;;;;5003535;28;20376;-63
2022/04/23 15:02:37;;;;;;;;;;;19.50;56.10;;;;;;4993406;28;19913;-68
2022/04/23 15:05:03;;;;;;;;;;;19.50;56.10;;;;;;5003281;28;20537;-69